Terminal Aerodrome Forecast
Issued by NWS Newport/Morehead City, NC

Home | Current Version | Previous Version | Text Only | Print | Product List | Glossary On
Versions: 1 2 3 4 5 6 7 8 9 10 11 12 13 14 15 16 17 18 19 20 21
000
FTUS42 KMHX 211140
TAFEWN
TAF
KEWN 211140Z 2112/2212 13010KT P6SM VCSH SCT035 BKN050
     FM211800 22012G18KT 5SM SHRA VCTS BKN025CB
     FM212200 35009KT P6SM VCSH OVC025
     FM220200 33006KT P6SM OVC012=

USA.gov is the U.S. government's official web portal to all federal, state and local government web resources and services.